createdAt,value
2019-03-18T00:00:19.583Z,13.13
2019-03-18T00:02:49.052Z,6.63
2019-03-18T00:05:18.501Z,5.20
2019-03-18T00:07:47.973Z,7.40
2019-03-18T00:10:17.422Z,6.30
2019-03-18T00:12:46.891Z,10.00
2019-03-18T00:15:16.363Z,5.30
2019-03-18T00:17:45.833Z,8.27
2019-03-18T00:20:15.355Z,10.67
2019-03-18T00:22:44.870Z,6.83
2019-03-18T00:25:15.852Z,6.60
2019-03-18T00:27:45.307Z,8.10
2019-03-18T00:30:19.961Z,7.83
2019-03-18T00:32:49.431Z,5.20
2019-03-18T00:35:18.970Z,5.77
2019-03-18T00:37:48.391Z,6.83
2019-03-18T00:40:20.827Z,7.90
2019-03-18T00:42:49.452Z,5.43
2019-03-18T00:45:18.860Z,6.33
2019-03-18T00:47:48.332Z,8.80
2019-03-18T00:50:18.055Z,8.33
2019-03-18T00:52:47.527Z,9.17
2019-03-18T00:55:16.977Z,5.43
2019-03-18T00:57:46.416Z,7.03
2019-03-18T01:00:18.265Z,6.03
2019-03-18T01:02:49.644Z,5.67
2019-03-18T01:05:19.542Z,7.57
2019-03-18T01:07:48.966Z,6.67
2019-03-18T01:10:20.037Z,5.30
2019-03-18T01:12:49.487Z,5.30
2019-03-18T01:15:27.844Z,7.70
2019-03-18T01:17:50.129Z,10.83
2019-03-18T01:20:19.651Z,9.23
2019-03-18T01:22:49.145Z,11.97
2019-03-18T01:25:18.574Z,8.77
2019-03-18T01:27:48.058Z,10.70
2019-03-18T01:30:17.501Z,7.65
2019-03-18T01:32:46.965Z,10.70
2019-03-18T01:35:16.415Z,9.45
2019-03-18T01:37:45.865Z,10.73
2019-03-18T01:40:15.400Z,7.43
2019-03-18T01:42:44.920Z,7.93
2019-03-18T01:45:14.974Z,8.97
2019-03-18T01:47:44.450Z,9.70
2019-03-18T01:50:15.898Z,12.17
2019-03-18T01:52:45.356Z,10.17
2019-03-18T01:55:14.889Z,11.93
2019-03-18T01:57:44.342Z,9.63
2019-03-18T02:00:15.966Z,8.33
2019-03-18T02:02:45.511Z,9.90
2019-03-18T02:05:14.953Z,6.60
2019-03-18T02:07:44.436Z,12.17
2019-03-18T02:10:15.762Z,8.50
2019-03-18T02:12:45.337Z,8.90
2019-03-18T02:15:15.673Z,9.83
2019-03-18T02:17:45.181Z,13.17
2019-03-18T02:20:19.957Z,8.98
2019-03-18T02:22:49.379Z,9.43
2019-03-18T02:25:18.830Z,10.33
2019-03-18T02:27:48.295Z,9.83
2019-03-18T02:30:20.516Z,8.77
2019-03-18T02:32:49.956Z,7.43
2019-03-18T02:35:19.417Z,6.67
2019-03-18T02:37:49.113Z,15.87
2019-03-18T02:40:18.587Z,6.20
2019-03-18T02:42:48.047Z,10.17
2019-03-18T02:45:17.525Z,6.90
2019-03-18T02:47:46.982Z,10.60
2019-03-18T02:50:16.670Z,10.07
2019-03-18T02:52:46.142Z,16.43
2019-03-18T02:55:15.839Z,8.60
2019-03-18T02:57:45.317Z,13.93
2019-03-18T03:00:16.000Z,8.55
2019-03-18T03:02:45.461Z,6.17
2019-03-18T03:05:15.072Z,8.63
2019-03-18T03:07:44.519Z,7.27
2019-03-18T03:10:15.084Z,8.87
2019-03-18T03:12:44.553Z,5.63
2019-03-18T03:15:15.110Z,8.20
2019-03-18T03:17:44.677Z,13.40
2019-03-18T03:20:14.377Z,8.40
2019-03-18T03:22:43.851Z,11.03
2019-03-18T03:25:13.408Z,8.10
2019-03-18T03:27:42.966Z,8.20
2019-03-18T03:30:14.543Z,7.47
2019-03-18T03:32:44.097Z,5.13
2019-03-18T03:35:13.945Z,8.67
2019-03-18T03:37:43.520Z,5.60
2019-03-18T03:40:13.516Z,7.67
2019-03-18T03:42:43.196Z,7.33
2019-03-18T03:45:14.223Z,9.53
2019-03-18T03:47:43.773Z,10.40
2019-03-18T03:50:14.933Z,7.30
2019-03-18T03:52:44.487Z,11.03
2019-03-18T03:55:14.637Z,6.80
2019-03-18T03:57:44.542Z,14.07
2019-03-18T04:00:15.330Z,7.35
2019-03-18T04:02:44.892Z,9.00
2019-03-18T04:05:14.380Z,6.30
2019-03-18T04:07:44.200Z,6.40
2019-03-18T04:10:15.262Z,8.03
2019-03-18T04:12:44.738Z,5.70
2019-03-18T04:15:15.606Z,7.63
2019-03-18T04:17:45.084Z,9.40
2019-03-18T04:20:18.267Z,14.13
2019-03-18T04:22:47.748Z,11.37
2019-03-18T04:25:17.219Z,8.00
2019-03-18T04:27:46.675Z,10.30
2019-03-18T04:30:16.562Z,7.57
2019-03-18T04:32:46.018Z,7.47
2019-03-18T04:35:15.558Z,5.10
2019-03-18T04:37:45.012Z,14.77
2019-03-18T04:40:14.533Z,8.37
2019-03-18T04:42:43.999Z,7.60
2019-03-18T04:45:13.534Z,10.83
2019-03-18T04:47:43.007Z,14.77
2019-03-18T04:50:13.787Z,7.47
2019-03-18T04:52:43.238Z,10.63
2019-03-18T04:55:12.706Z,12.20
2019-03-18T04:57:42.164Z,12.30
2019-03-18T05:00:15.883Z,5.80
2019-03-18T05:02:45.580Z,8.20
2019-03-18T05:05:15.099Z,9.70
2019-03-18T05:07:44.549Z,11.40
2019-03-18T05:10:14.021Z,13.47
2019-03-18T05:12:43.481Z,15.83
2019-03-18T05:15:12.928Z,16.47
2019-03-18T05:17:42.401Z,15.93
2019-03-18T05:20:12.592Z,10.10
2019-03-18T05:22:42.065Z,10.90
2019-03-18T05:25:11.785Z,12.50
2019-03-18T05:27:41.235Z,14.57
2019-03-18T05:30:13.412Z,11.33
2019-03-18T05:32:42.863Z,14.30
2019-03-18T05:35:12.309Z,11.77
2019-03-18T05:37:41.784Z,12.20
2019-03-18T05:40:12.077Z,15.43
2019-03-18T05:42:41.522Z,10.90
2019-03-18T05:45:12.029Z,11.10
2019-03-18T05:47:41.502Z,13.17
2019-03-18T05:50:12.104Z,12.10
2019-03-18T05:52:41.577Z,11.10
2019-03-18T05:55:11.390Z,23.00
2019-03-18T05:57:41.063Z,8.53
2019-03-18T06:00:14.905Z,13.77
2019-03-18T06:02:46.789Z,9.43
2019-03-18T06:05:15.526Z,9.80
2019-03-18T06:07:44.996Z,10.70
2019-03-18T06:10:14.763Z,9.50
2019-03-18T06:12:44.269Z,10.63
2019-03-18T06:15:14.496Z,10.27
2019-03-18T06:17:52.085Z,11.53
2019-03-18T06:20:15.407Z,11.50
2019-03-18T06:22:44.867Z,16.33
2019-03-18T06:25:14.537Z,16.20
2019-03-18T06:27:44.041Z,12.57
2019-03-18T06:30:15.965Z,9.07
2019-03-18T06:32:45.427Z,8.20
2019-03-18T06:35:14.960Z,7.30
2019-03-18T06:37:44.411Z,8.63
2019-03-18T06:40:15.085Z,7.08
2019-03-18T06:42:44.558Z,10.80
2019-03-18T06:45:14.145Z,10.18
2019-03-18T06:47:43.597Z,10.77
2019-03-18T06:50:14.110Z,10.43
2019-03-18T06:52:43.558Z,9.60
2019-03-18T06:55:13.081Z,6.83
2019-03-18T06:57:42.546Z,8.47
2019-03-18T07:00:16.730Z,4.80
2019-03-18T07:02:46.189Z,6.10
2019-03-18T07:05:15.711Z,6.17
2019-03-18T07:07:45.172Z,8.23
2019-03-18T07:10:15.016Z,7.43
2019-03-18T07:12:44.465Z,7.00
2019-03-18T07:15:14.103Z,8.60
2019-03-18T07:17:43.531Z,8.80
2019-03-18T07:20:14.392Z,5.17
2019-03-18T07:22:43.927Z,7.17
2019-03-18T07:25:13.687Z,9.73
2019-03-18T07:27:43.519Z,12.80
2019-03-18T07:30:14.770Z,5.63
2019-03-18T07:32:44.298Z,7.67
2019-03-18T07:35:13.888Z,7.40
2019-03-18T07:37:43.434Z,7.03
2019-03-18T07:40:16.939Z,3.20
2019-03-18T07:42:47.338Z,7.63
2019-03-18T07:45:16.945Z,10.47
2019-03-18T07:47:46.390Z,7.63
2019-03-18T07:50:16.496Z,6.10
2019-03-18T07:52:46.016Z,11.00
2019-03-18T07:55:15.473Z,8.47
2019-03-18T07:57:44.941Z,5.67
2019-03-18T08:00:17.347Z,5.00
2019-03-18T08:02:46.867Z,9.70
2019-03-18T08:05:16.340Z,6.53
2019-03-18T08:07:45.791Z,9.23
2019-03-18T08:10:15.617Z,6.63
2019-03-18T08:12:45.086Z,10.40
2019-03-18T08:15:14.904Z,8.27
2019-03-18T08:17:44.445Z,7.87
2019-03-18T08:20:14.256Z,6.80
2019-03-18T08:22:43.713Z,12.43
2019-03-18T08:25:13.347Z,8.90
2019-03-18T08:27:42.893Z,11.00
2019-03-18T08:30:17.226Z,9.10
2019-03-18T08:32:46.663Z,8.90
2019-03-18T08:35:16.137Z,10.37
2019-03-18T08:37:45.605Z,8.40
2019-03-18T08:40:15.056Z,8.57
2019-03-18T08:42:44.499Z,7.57
2019-03-18T08:45:14.605Z,9.20
2019-03-18T08:47:44.191Z,8.10
2019-03-18T08:50:13.717Z,10.90
2019-03-18T08:52:43.184Z,7.60
2019-03-18T08:55:12.991Z,10.60
2019-03-18T08:57:42.514Z,10.60
2019-03-18T09:00:14.695Z,5.73
2019-03-18T09:02:44.234Z,7.30
2019-03-18T09:05:14.017Z,7.37
2019-03-18T09:07:43.466Z,7.07
2019-03-18T09:10:14.947Z,11.27
2019-03-18T09:12:44.533Z,8.57
2019-03-18T09:15:14.570Z,9.77
2019-03-18T09:17:44.033Z,9.73
2019-03-18T09:20:17.808Z,7.85
2019-03-18T09:22:47.337Z,10.77
2019-03-18T09:25:16.976Z,9.37
2019-03-18T09:27:46.398Z,12.13
2019-03-18T09:30:23.177Z,7.30
2019-03-18T09:32:52.641Z,8.20
2019-03-18T09:35:22.102Z,7.53
2019-03-18T09:37:51.557Z,11.97
2019-03-18T09:40:21.018Z,9.90
2019-03-18T09:42:50.492Z,11.13
2019-03-18T09:45:20.097Z,10.60
2019-03-18T09:47:49.560Z,12.83
2019-03-18T09:50:19.152Z,15.60
2019-03-18T09:52:48.668Z,9.80
2019-03-18T09:55:18.143Z,20.80
2019-03-18T09:57:47.845Z,10.00
2019-03-18T10:00:19.989Z,8.40
2019-03-18T10:02:49.445Z,10.60
2019-03-18T10:05:18.951Z,9.40
2019-03-18T10:07:48.499Z,10.33
2019-03-18T10:10:18.049Z,13.17
2019-03-18T10:12:47.518Z,15.43
2019-03-18T10:15:21.480Z,13.20
2019-03-18T10:17:50.931Z,11.90
2019-03-18T10:20:20.473Z,11.67
2019-03-18T10:22:50.016Z,10.87
2019-03-18T10:25:19.670Z,11.67
2019-03-18T10:27:49.122Z,14.80
2019-03-18T10:30:18.576Z,13.03
2019-03-18T10:32:48.046Z,13.73
2019-03-18T10:35:17.499Z,10.70
2019-03-18T10:37:46.962Z,12.67
2019-03-18T10:40:16.447Z,10.87
2019-03-18T10:42:46.137Z,13.47
2019-03-18T10:45:15.978Z,17.03
2019-03-18T10:47:45.427Z,8.50
2019-03-18T10:50:18.713Z,15.67
2019-03-18T10:52:48.182Z,9.10
2019-03-18T10:55:17.650Z,13.30
2019-03-18T10:57:47.108Z,14.43
2019-03-18T11:00:20.584Z,9.17
2019-03-18T11:02:50.541Z,13.17
2019-03-18T11:05:19.999Z,18.73
2019-03-18T11:07:51.726Z,10.77
2019-03-18T11:10:20.803Z,16.77
2019-03-18T11:12:50.266Z,14.17
2019-03-18T11:15:23.239Z,11.73
2019-03-18T11:17:52.694Z,12.40
2019-03-18T11:20:22.155Z,13.97
2019-03-18T11:22:51.688Z,11.97
2019-03-18T11:25:21.243Z,12.73
2019-03-18T11:27:50.714Z,11.47
2019-03-18T11:30:20.903Z,7.27
2019-03-18T11:32:50.354Z,5.97
2019-03-18T11:35:19.827Z,11.87
2019-03-18T11:37:49.283Z,12.80
2019-03-18T11:40:22.289Z,11.60
2019-03-18T11:42:51.764Z,14.43
2019-03-18T11:45:21.313Z,18.25
2019-03-18T11:47:50.838Z,16.53
2019-03-18T11:50:21.247Z,13.05
2019-03-18T11:52:50.777Z,13.30
2019-03-18T11:55:25.475Z,16.65
2019-03-18T11:57:54.998Z,18.80
2019-03-18T12:00:25.955Z,9.63
2019-03-18T12:02:55.499Z,10.40
2019-03-18T12:05:29.007Z,20.33
2019-03-18T12:07:58.466Z,12.73
2019-03-18T12:10:28.011Z,11.10
2019-03-18T12:12:57.461Z,10.73
2019-03-18T12:15:27.955Z,11.13
2019-03-18T12:17:57.493Z,14.20
2019-03-18T12:20:27.017Z,15.60
2019-03-18T12:22:56.560Z,10.67
2019-03-18T12:25:26.031Z,13.30
2019-03-18T12:27:55.485Z,14.63
2019-03-18T12:30:27.051Z,14.20
2019-03-18T12:32:56.518Z,12.23
2019-03-18T12:35:26.080Z,10.20
2019-03-18T12:37:55.666Z,13.60
2019-03-18T12:40:25.181Z,9.53
2019-03-18T12:42:54.669Z,12.57
2019-03-18T12:45:24.141Z,12.27
2019-03-18T12:47:53.596Z,12.57
2019-03-18T12:50:42.917Z,8.17
2019-03-18T12:52:55.707Z,10.30
2019-03-18T12:55:25.223Z,15.17
2019-03-18T12:57:54.706Z,10.60
2019-03-18T13:00:33.488Z,9.80
2019-03-18T13:03:03.059Z,12.47
2019-03-18T13:05:32.578Z,9.80
2019-03-18T13:08:02.120Z,9.00
2019-03-18T13:10:31.585Z,11.20
2019-03-18T13:13:01.028Z,9.60
2019-03-18T13:15:30.605Z,11.80
2019-03-18T13:18:00.079Z,11.87
2019-03-18T13:20:29.541Z,17.70
2019-03-18T13:22:58.998Z,8.20
2019-03-18T13:25:28.482Z,9.53
2019-03-18T13:27:57.928Z,9.97
2019-03-18T13:30:27.393Z,8.73
2019-03-18T13:32:56.859Z,9.07
2019-03-18T13:35:26.318Z,8.60
2019-03-18T13:37:55.767Z,13.53
2019-03-18T13:40:25.250Z,15.10
2019-03-18T13:42:54.769Z,6.07
2019-03-18T13:45:24.854Z,9.37
2019-03-18T13:47:54.330Z,11.23
2019-03-18T13:50:23.932Z,10.60
2019-03-18T13:52:53.395Z,9.80
2019-03-18T13:55:22.917Z,7.05
2019-03-18T13:57:52.367Z,8.67
2019-03-18T14:00:23.623Z,12.43
2019-03-18T14:02:53.146Z,7.40
2019-03-18T14:05:22.671Z,6.50
2019-03-18T14:08:00.374Z,7.10
2019-03-18T14:10:24.394Z,13.10
2019-03-18T14:12:54.111Z,9.23
2019-03-18T14:15:25.780Z,13.17
2019-03-18T14:17:55.294Z,11.63
2019-03-18T14:20:31.308Z,8.73
2019-03-18T14:23:00.762Z,8.30
2019-03-18T14:25:30.294Z,10.93
2019-03-18T14:27:59.764Z,10.17
2019-03-18T14:30:29.216Z,12.60
2019-03-18T14:32:58.693Z,7.60
2019-03-18T14:35:28.143Z,7.67
2019-03-18T14:37:57.616Z,11.60
2019-03-18T14:40:27.248Z,10.15
2019-03-18T14:42:56.688Z,6.10
2019-03-18T14:45:26.244Z,11.40
2019-03-18T14:47:55.791Z,10.10
2019-03-18T14:50:25.241Z,10.40
2019-03-18T14:52:54.705Z,10.40
2019-03-18T14:55:24.182Z,12.67
2019-03-18T14:57:53.635Z,11.37
2019-03-18T15:00:24.802Z,14.03
2019-03-18T15:02:54.265Z,8.83
2019-03-18T15:05:23.749Z,9.30
2019-03-18T15:07:53.359Z,13.13
2019-03-18T15:10:30.068Z,15.80
2019-03-18T15:12:59.715Z,8.97
2019-03-18T15:15:29.196Z,13.70
2019-03-18T15:17:58.655Z,10.10
2019-03-18T15:20:29.222Z,12.25
2019-03-18T15:22:58.708Z,17.13
2019-03-18T15:25:34.226Z,14.47
2019-03-18T15:28:03.880Z,12.27
2019-03-18T15:30:33.319Z,9.57
2019-03-18T15:33:02.780Z,13.73
2019-03-18T15:35:32.271Z,8.30
2019-03-18T15:38:01.698Z,9.30
2019-03-18T15:40:31.427Z,11.97
2019-03-18T15:43:00.893Z,13.30
2019-03-18T15:45:30.351Z,19.80
2019-03-18T15:48:00.662Z,16.97
2019-03-18T15:50:30.116Z,17.20
2019-03-18T15:52:59.570Z,16.33
2019-03-18T15:55:29.053Z,13.67
2019-03-18T15:57:58.526Z,22.80
2019-03-18T16:00:30.846Z,11.70
2019-03-18T16:03:00.871Z,10.17
2019-03-18T16:05:30.346Z,13.43
2019-03-18T16:07:59.957Z,17.80
2019-03-18T16:10:29.416Z,15.40
2019-03-18T16:12:59.122Z,16.47
2019-03-18T16:15:28.599Z,12.43
2019-03-18T16:17:58.058Z,12.00
2019-03-18T16:20:28.156Z,11.97
2019-03-18T16:22:57.642Z,16.17
2019-03-18T16:25:27.099Z,13.78
2019-03-18T16:27:56.553Z,17.30
2019-03-18T16:30:26.102Z,12.67
2019-03-18T16:32:55.548Z,12.07
2019-03-18T16:35:25.034Z,13.53
2019-03-18T16:37:54.582Z,13.83
2019-03-18T16:40:24.888Z,12.40
2019-03-18T16:42:54.411Z,24.17
2019-03-18T16:45:24.023Z,11.20
2019-03-18T16:47:53.475Z,17.77
2019-03-18T16:50:32.579Z,13.50
2019-03-18T16:53:02.101Z,16.93
2019-03-18T16:55:31.629Z,20.60
2019-03-18T16:58:01.149Z,11.07
2019-03-18T17:00:30.737Z,8.57
2019-03-18T17:03:00.347Z,14.40
2019-03-18T17:05:29.846Z,12.57
2019-03-18T17:07:59.339Z,12.87
2019-03-18T17:10:28.826Z,10.47
2019-03-18T17:12:58.349Z,12.60
2019-03-18T17:15:28.097Z,14.97
2019-03-18T17:17:57.653Z,18.83
2019-03-18T17:20:27.157Z,20.77
2019-03-18T17:22:56.726Z,13.23
2019-03-18T17:25:31.438Z,12.15
2019-03-18T17:28:00.903Z,10.27
2019-03-18T17:30:30.384Z,20.27
2019-03-18T17:32:59.829Z,10.73
2019-03-18T17:35:29.344Z,7.80
2019-03-18T17:37:59.146Z,8.17
2019-03-18T17:40:28.664Z,10.20
2019-03-18T17:42:58.254Z,12.27
2019-03-18T17:45:27.688Z,14.10
2019-03-18T17:47:57.150Z,13.10
2019-03-18T17:50:31.075Z,13.43
2019-03-18T17:53:03.726Z,19.83
2019-03-18T17:55:31.731Z,10.83
2019-03-18T17:58:01.267Z,16.17
2019-03-18T18:00:34.838Z,10.00
2019-03-18T18:03:04.474Z,21.20
2019-03-18T18:05:33.922Z,20.27
2019-03-18T18:08:03.423Z,23.37
2019-03-18T18:10:32.887Z,19.63
2019-03-18T18:13:02.410Z,13.27
2019-03-18T18:15:31.867Z,17.20
2019-03-18T18:18:01.338Z,14.17
2019-03-18T18:20:30.798Z,16.03
2019-03-18T18:23:00.236Z,18.20
2019-03-18T18:25:29.700Z,9.37
2019-03-18T18:27:59.222Z,14.73
2019-03-18T18:30:28.694Z,13.77
2019-03-18T18:32:58.164Z,12.80
2019-03-18T18:35:27.639Z,23.33
2019-03-18T18:37:57.089Z,14.20
2019-03-18T18:40:31.438Z,14.90
2019-03-18T18:43:00.917Z,15.00
2019-03-18T18:45:30.366Z,18.63
2019-03-18T18:47:59.814Z,15.63
2019-03-18T18:50:29.281Z,9.63
2019-03-18T18:52:58.759Z,12.30
2019-03-18T18:55:28.203Z,14.67
2019-03-18T18:57:57.680Z,24.53
2019-03-18T19:00:27.130Z,13.73
2019-03-18T19:02:56.586Z,10.10
2019-03-18T19:05:26.203Z,12.77
2019-03-18T19:07:57.639Z,12.73
2019-03-18T19:10:26.951Z,14.07
2019-03-18T19:12:56.542Z,8.90
2019-03-18T19:15:38.224Z,11.63
2019-03-18T19:18:07.724Z,19.17
2019-03-18T19:20:37.219Z,17.37
2019-03-18T19:23:06.733Z,9.70
2019-03-18T19:25:36.185Z,14.63
2019-03-18T19:28:06.745Z,13.67
2019-03-18T19:30:36.222Z,23.10
2019-03-18T19:33:05.668Z,12.60
2019-03-18T19:35:35.118Z,12.47
2019-03-18T19:38:04.588Z,5.47
2019-03-18T19:40:34.039Z,13.13
2019-03-18T19:43:03.511Z,18.60
2019-03-18T19:45:32.960Z,20.63
2019-03-18T19:48:02.496Z,11.93
2019-03-18T19:50:33.309Z,10.90
2019-03-18T19:53:02.829Z,15.10
2019-03-18T19:55:32.285Z,15.50
2019-03-18T19:58:01.763Z,12.83
2019-03-18T20:00:32.125Z,10.13
2019-03-18T20:03:01.577Z,13.80
2019-03-18T20:05:31.046Z,11.70
2019-03-18T20:08:00.494Z,7.93
2019-03-18T20:10:29.947Z,22.30
2019-03-18T20:12:59.423Z,26.53
2019-03-18T20:15:28.942Z,12.80
2019-03-18T20:17:58.396Z,14.53
2019-03-18T20:20:27.878Z,16.80
2019-03-18T20:22:57.322Z,13.77
2019-03-18T20:25:26.775Z,24.90
2019-03-18T20:27:56.251Z,17.50
2019-03-18T20:30:25.731Z,22.67
2019-03-18T20:32:55.171Z,21.97
2019-03-18T20:35:27.557Z,30.27
2019-03-18T20:37:57.021Z,37.07
2019-03-18T20:40:26.500Z,30.88
2019-03-18T20:42:55.973Z,41.80
2019-03-18T20:45:26.739Z,30.93
2019-03-18T20:47:56.214Z,35.87
2019-03-18T20:50:26.007Z,33.03
2019-03-18T20:52:55.487Z,27.60
2019-03-18T20:55:25.007Z,28.00
2019-03-18T20:57:54.488Z,32.97
2019-03-18T21:00:24.719Z,19.80
2019-03-18T21:02:54.245Z,15.20
2019-03-18T21:05:25.123Z,17.13
2019-03-18T21:07:55.009Z,17.73
2019-03-18T21:10:24.465Z,12.43
2019-03-18T21:12:53.937Z,15.93
2019-03-18T21:15:23.405Z,22.27
2019-03-18T21:17:52.851Z,15.03
2019-03-18T21:20:25.277Z,22.03
2019-03-18T21:22:54.752Z,13.37
2019-03-18T21:25:24.276Z,15.60
2019-03-18T21:27:53.748Z,27.37
2019-03-18T21:30:23.953Z,16.63
2019-03-18T21:32:53.442Z,11.07
2019-03-18T21:35:22.856Z,9.53
2019-03-18T21:37:52.327Z,14.53
2019-03-18T21:40:22.323Z,16.07
2019-03-18T21:42:51.847Z,19.43
2019-03-18T21:45:23.603Z,14.03
2019-03-18T21:47:53.897Z,29.63
2019-03-18T21:50:23.415Z,26.23
2019-03-18T21:52:52.945Z,33.10
2019-03-18T21:55:22.411Z,28.57
2019-03-18T21:57:51.886Z,43.40
2019-03-18T22:00:24.498Z,21.67
2019-03-18T22:02:53.958Z,24.80
2019-03-18T22:05:23.424Z,16.93
2019-03-18T22:07:52.872Z,18.90
2019-03-18T22:10:22.830Z,17.43
2019-03-18T22:12:52.299Z,20.77
2019-03-18T22:15:21.985Z,24.90
2019-03-18T22:17:51.443Z,22.90
2019-03-18T22:20:23.727Z,20.25
2019-03-18T22:22:53.169Z,23.03
2019-03-18T22:25:22.624Z,29.20
2019-03-18T22:27:52.105Z,20.20
2019-03-18T22:30:21.624Z,26.17
2019-03-18T22:32:51.079Z,17.80
2019-03-18T22:35:20.657Z,23.40
2019-03-18T22:37:50.242Z,23.00
2019-03-18T22:40:19.899Z,18.50
2019-03-18T22:42:49.536Z,22.03
2019-03-18T22:45:19.283Z,21.97
2019-03-18T22:47:48.725Z,18.73
2019-03-18T22:50:18.636Z,25.20
2019-03-18T22:52:48.086Z,23.10
2019-03-18T22:55:17.567Z,23.23
2019-03-18T22:57:47.131Z,18.83
2019-03-18T23:00:24.155Z,15.30
2019-03-18T23:02:53.698Z,17.10
2019-03-18T23:05:23.282Z,16.40
2019-03-18T23:07:52.809Z,18.37
2019-03-18T23:10:22.305Z,30.17
2019-03-18T23:12:51.770Z,17.73
2019-03-18T23:15:21.303Z,23.10
2019-03-18T23:17:50.795Z,18.50
2019-03-18T23:20:20.284Z,19.90
2019-03-18T23:22:49.872Z,18.40
2019-03-18T23:25:19.609Z,19.40
2019-03-18T23:27:49.118Z,16.90
2019-03-18T23:30:18.690Z,17.93
2019-03-18T23:32:48.546Z,20.40
2019-03-18T23:35:18.023Z,20.88
2019-03-18T23:37:47.539Z,16.27
2019-03-18T23:40:17.066Z,20.88
2019-03-18T23:42:46.537Z,18.67
2019-03-18T23:45:15.995Z,28.87
2019-03-18T23:47:45.472Z,19.40
2019-03-18T23:50:16.160Z,23.32
2019-03-18T23:52:45.644Z,22.50
2019-03-18T23:55:19.549Z,16.90
2019-03-18T23:57:46.257Z,19.37
